sensor_id;sensor_type;location;lat;lon;timestamp;P1;P2;P0
78063;PMS5003;67429;51.596;-3.264;2023-06-14T00:00:48;25;25;
78063;PMS5003;67429;51.596;-3.264;2023-06-14T00:03:14;25;23;
78063;PMS5003;67429;51.596;-3.264;2023-06-14T00:05:39;23;23;
78063;PMS5003;67429;51.596;-3.264;2023-06-14T00:08:04;23;23;
78063;PMS5003;67429;51.596;-3.264;2023-06-14T00:10:29;28;26;
78063;PMS5003;67429;51.596;-3.264;2023-06-14T00:12:55;22;22;
78063;PMS5003;67429;51.596;-3.264;2023-06-14T00:15:20;25;25;
78063;PMS5003;67429;51.596;-3.264;2023-06-14T00:17:46;25;25;
78063;PMS5003;67429;51.596;-3.264;2023-06-14T00:20:11;25;24;
78063;PMS5003;67429;51.596;-3.264;2023-06-14T00:22:37;24;23;
78063;PMS5003;67429;51.596;-3.264;2023-06-14T00:25:02;23;22;
78063;PMS5003;67429;51.596;-3.264;2023-06-14T00:27:28;25;24;
78063;PMS5003;67429;51.596;-3.264;2023-06-14T00:29:54;25;24;
78063;PMS5003;67429;51.596;-3.264;2023-06-14T00:32:19;22;22;
78063;PMS5003;67429;51.596;-3.264;2023-06-14T00:34:45;22;21;
78063;PMS5003;67429;51.596;-3.264;2023-06-14T00:37:11;25;24;
78063;PMS5003;67429;51.596;-3.264;2023-06-14T00:39:36;23;23;
78063;PMS5003;67429;51.596;-3.264;2023-06-14T00:42:01;23;22;
78063;PMS5003;67429;51.596;-3.264;2023-06-14T00:44:27;24;24;
78063;PMS5003;67429;51.596;-3.264;2023-06-14T00:46:52;23;23;
78063;PMS5003;67429;51.596;-3.264;2023-06-14T00:49:18;21;21;
78063;PMS5003;67429;51.596;-3.264;2023-06-14T00:51:43;26;25;
78063;PMS5003;67429;51.596;-3.264;2023-06-14T00:54:08;23;23;
78063;PMS5003;67429;51.596;-3.264;2023-06-14T00:56:35;25;25;
78063;PMS5003;67429;51.596;-3.264;2023-06-14T00:58:59;26;26;
78063;PMS5003;67429;51.596;-3.264;2023-06-14T01:01:24;27;27;
78063;PMS5003;67429;51.596;-3.264;2023-06-14T01:03:50;25;24;
78063;PMS5003;67429;51.596;-3.264;2023-06-14T01:06:18;25;24;
78063;PMS5003;67429;51.596;-3.264;2023-06-14T01:08:43;24;22;
78063;PMS5003;67429;51.596;-3.264;2023-06-14T01:11:07;23;23;
78063;PMS5003;67429;51.596;-3.264;2023-06-14T01:13:33;24;24;
78063;PMS5003;67429;51.596;-3.264;2023-06-14T01:15:57;25;24;
78063;PMS5003;67429;51.596;-3.264;2023-06-14T01:18:23;22;22;
78063;PMS5003;67429;51.596;-3.264;2023-06-14T01:20:48;26;24;
78063;PMS5003;67429;51.596;-3.264;2023-06-14T01:23:13;25;24;
78063;PMS5003;67429;51.596;-3.264;2023-06-14T01:25:39;25;23;
78063;PMS5003;67429;51.596;-3.264;2023-06-14T01:28:05;21;21;
78063;PMS5003;67429;51.596;-3.264;2023-06-14T01:30:30;26;26;
78063;PMS5003;67429;51.596;-3.264;2023-06-14T01:32:55;22;21;
78063;PMS5003;67429;51.596;-3.264;2023-06-14T01:35:20;19;19;
78063;PMS5003;67429;51.596;-3.264;2023-06-14T01:37:46;19;18;
78063;PMS5003;67429;51.596;-3.264;2023-06-14T01:40:11;19;19;
78063;PMS5003;67429;51.596;-3.264;2023-06-14T01:42:37;20;20;
78063;PMS5003;67429;51.596;-3.264;2023-06-14T01:45:02;19;19;
78063;PMS5003;67429;51.596;-3.264;2023-06-14T01:47:27;23;22;
78063;PMS5003;67429;51.596;-3.264;2023-06-14T01:49:53;20;20;
78063;PMS5003;67429;51.596;-3.264;2023-06-14T01:52:18;22;21;
78063;PMS5003;67429;51.596;-3.264;2023-06-14T01:54:43;20;19;
78063;PMS5003;67429;51.596;-3.264;2023-06-14T01:57:08;19;19;
78063;PMS5003;67429;51.596;-3.264;2023-06-14T01:59:34;19;18;
78063;PMS5003;67429;51.596;-3.264;2023-06-14T02:01:59;17;17;
78063;PMS5003;67429;51.596;-3.264;2023-06-14T02:04:24;15;15;
78063;PMS5003;67429;51.596;-3.264;2023-06-14T02:06:50;21;21;
78063;PMS5003;67429;51.596;-3.264;2023-06-14T02:09:16;20;18;
78063;PMS5003;67429;51.596;-3.264;2023-06-14T02:11:42;17;17;
78063;PMS5003;67429;51.596;-3.264;2023-06-14T02:14:07;18;17;
78063;PMS5003;67429;51.596;-3.264;2023-06-14T02:16:32;16;16;
78063;PMS5003;67429;51.596;-3.264;2023-06-14T02:18:58;19;18;
78063;PMS5003;67429;51.596;-3.264;2023-06-14T02:21:23;20;18;
78063;PMS5003;67429;51.596;-3.264;2023-06-14T02:23:48;15;15;
78063;PMS5003;67429;51.596;-3.264;2023-06-14T02:26:14;20;20;
78063;PMS5003;67429;51.596;-3.264;2023-06-14T02:28:40;18;17;
78063;PMS5003;67429;51.596;-3.264;2023-06-14T02:31:05;20;18;
78063;PMS5003;67429;51.596;-3.264;2023-06-14T02:33:31;20;19;
78063;PMS5003;67429;51.596;-3.264;2023-06-14T02:35:57;20;20;
78063;PMS5003;67429;51.596;-3.264;2023-06-14T02:38:22;21;20;
78063;PMS5003;67429;51.596;-3.264;2023-06-14T02:40:47;17;17;
78063;PMS5003;67429;51.596;-3.264;2023-06-14T02:43:13;18;17;
78063;PMS5003;67429;51.596;-3.264;2023-06-14T02:45:38;19;19;
78063;PMS5003;67429;51.596;-3.264;2023-06-14T02:48:04;19;19;
78063;PMS5003;67429;51.596;-3.264;2023-06-14T02:50:30;19;18;
78063;PMS5003;67429;51.596;-3.264;2023-06-14T02:52:55;18;18;
78063;PMS5003;67429;51.596;-3.264;2023-06-14T02:55:20;17;16;
78063;PMS5003;67429;51.596;-3.264;2023-06-14T02:57:46;17;16;
78063;PMS5003;67429;51.596;-3.264;2023-06-14T03:00:11;16;16;
78063;PMS5003;67429;51.596;-3.264;2023-06-14T03:02:37;17;17;
78063;PMS5003;67429;51.596;-3.264;2023-06-14T03:05:03;16;16;
78063;PMS5003;67429;51.596;-3.264;2023-06-14T03:07:28;19;19;
78063;PMS5003;67429;51.596;-3.264;2023-06-14T03:09:54;19;19;
78063;PMS5003;67429;51.596;-3.264;2023-06-14T03:12:19;18;17;
78063;PMS5003;67429;51.596;-3.264;2023-06-14T03:14:44;17;17;
78063;PMS5003;67429;51.596;-3.264;2023-06-14T03:17:10;21;19;
78063;PMS5003;67429;51.596;-3.264;2023-06-14T03:19:35;19;18;
78063;PMS5003;67429;51.596;-3.264;2023-06-14T03:22:00;18;18;
78063;PMS5003;67429;51.596;-3.264;2023-06-14T03:24:26;20;19;
78063;PMS5003;67429;51.596;-3.264;2023-06-14T03:26:52;19;18;
78063;PMS5003;67429;51.596;-3.264;2023-06-14T03:29:17;16;16;
78063;PMS5003;67429;51.596;-3.264;2023-06-14T03:34:08;17;17;
78063;PMS5003;67429;51.596;-3.264;2023-06-14T03:36:34;18;18;
78063;PMS5003;67429;51.596;-3.264;2023-06-14T03:39:00;16;16;
78063;PMS5003;67429;51.596;-3.264;2023-06-14T03:41:25;18;16;
78063;PMS5003;67429;51.596;-3.264;2023-06-14T03:43:50;15;15;
78063;PMS5003;67429;51.596;-3.264;2023-06-14T03:46:16;15;15;
78063;PMS5003;67429;51.596;-3.264;2023-06-14T03:48:41;17;17;
78063;PMS5003;67429;51.596;-3.264;2023-06-14T03:51:06;13;12;
78063;PMS5003;67429;51.596;-3.264;2023-06-14T03:53:32;14;14;
78063;PMS5003;67429;51.596;-3.264;2023-06-14T03:55:57;14;14;
78063;PMS5003;67429;51.596;-3.264;2023-06-14T03:58:22;16;16;
78063;PMS5003;67429;51.596;-3.264;2023-06-14T04:00:48;13;12;
78063;PMS5003;67429;51.596;-3.264;2023-06-14T04:03:13;12;12;
78063;PMS5003;67429;51.596;-3.264;2023-06-14T04:05:39;12;11;
78063;PMS5003;67429;51.596;-3.264;2023-06-14T04:08:05;16;12;
78063;PMS5003;67429;51.596;-3.264;2023-06-14T04:10:30;11;11;
78063;PMS5003;67429;51.596;-3.264;2023-06-14T04:12:56;11;11;
78063;PMS5003;67429;51.596;-3.264;2023-06-14T04:15:21;11;11;
78063;PMS5003;67429;51.596;-3.264;2023-06-14T04:17:46;12;12;
78063;PMS5003;67429;51.596;-3.264;2023-06-14T04:20:12;10;10;
78063;PMS5003;67429;51.596;-3.264;2023-06-14T04:22:37;11;11;
78063;PMS5003;67429;51.596;-3.264;2023-06-14T04:25:03;10;10;
78063;PMS5003;67429;51.596;-3.264;2023-06-14T04:27:28;10;10;
78063;PMS5003;67429;51.596;-3.264;2023-06-14T04:29:54;9;9;
78063;PMS5003;67429;51.596;-3.264;2023-06-14T04:32:19;10;10;
78063;PMS5003;67429;51.596;-3.264;2023-06-14T04:34:45;11;10;
78063;PMS5003;67429;51.596;-3.264;2023-06-14T04:37:11;13;13;
78063;PMS5003;67429;51.596;-3.264;2023-06-14T04:39:36;11;11;
78063;PMS5003;67429;51.596;-3.264;2023-06-14T04:42:02;10;10;
78063;PMS5003;67429;51.596;-3.264;2023-06-14T04:44:27;12;11;
78063;PMS5003;67429;51.596;-3.264;2023-06-14T04:46:52;13;12;
78063;PMS5003;67429;51.596;-3.264;2023-06-14T04:49:19;12;12;
78063;PMS5003;67429;51.596;-3.264;2023-06-14T04:51:45;7;7;
78063;PMS5003;67429;51.596;-3.264;2023-06-14T04:54:09;9;9;
78063;PMS5003;67429;51.596;-3.264;2023-06-14T04:56:35;10;10;
78063;PMS5003;67429;51.596;-3.264;2023-06-14T04:59:01;11;11;
78063;PMS5003;67429;51.596;-3.264;2023-06-14T05:01:26;10;10;
78063;PMS5003;67429;51.596;-3.264;2023-06-14T05:03:51;10;10;
78063;PMS5003;67429;51.596;-3.264;2023-06-14T05:06:17;10;9;
78063;PMS5003;67429;51.596;-3.264;2023-06-14T05:08:42;9;9;
78063;PMS5003;67429;51.596;-3.264;2023-06-14T05:11:08;11;11;
78063;PMS5003;67429;51.596;-3.264;2023-06-14T05:13:34;8;8;
78063;PMS5003;67429;51.596;-3.264;2023-06-14T05:16:04;9;9;
78063;PMS5003;67429;51.596;-3.264;2023-06-14T05:18:24;9;9;
78063;PMS5003;67429;51.596;-3.264;2023-06-14T05:20:50;10;10;
78063;PMS5003;67429;51.596;-3.264;2023-06-14T05:23:15;8;8;
78063;PMS5003;67429;51.596;-3.264;2023-06-14T05:25:41;12;11;
78063;PMS5003;67429;51.596;-3.264;2023-06-14T05:28:07;10;9;
78063;PMS5003;67429;51.596;-3.264;2023-06-14T05:30:32;12;11;
78063;PMS5003;67429;51.596;-3.264;2023-06-14T05:32:58;11;10;
78063;PMS5003;67429;51.596;-3.264;2023-06-14T05:35:23;11;11;
78063;PMS5003;67429;51.596;-3.264;2023-06-14T05:37:49;11;11;
78063;PMS5003;67429;51.596;-3.264;2023-06-14T05:40:14;11;11;
78063;PMS5003;67429;51.596;-3.264;2023-06-14T05:42:40;10;10;
78063;PMS5003;67429;51.596;-3.264;2023-06-14T05:45:06;10;10;
78063;PMS5003;67429;51.596;-3.264;2023-06-14T05:47:31;11;11;
78063;PMS5003;67429;51.596;-3.264;2023-06-14T05:49:57;11;11;
78063;PMS5003;67429;51.596;-3.264;2023-06-14T05:52:22;11;11;
78063;PMS5003;67429;51.596;-3.264;2023-06-14T05:54:48;10;10;
78063;PMS5003;67429;51.596;-3.264;2023-06-14T05:57:13;11;11;
78063;PMS5003;67429;51.596;-3.264;2023-06-14T05:59:39;11;11;
78063;PMS5003;67429;51.596;-3.264;2023-06-14T06:02:05;11;11;
78063;PMS5003;67429;51.596;-3.264;2023-06-14T06:04:30;9;9;
78063;PMS5003;67429;51.596;-3.264;2023-06-14T06:06:56;11;11;
78063;PMS5003;67429;51.596;-3.264;2023-06-14T06:09:21;10;10;
78063;PMS5003;67429;51.596;-3.264;2023-06-14T06:11:47;9;9;
78063;PMS5003;67429;51.596;-3.264;2023-06-14T06:14:12;11;11;
78063;PMS5003;67429;51.596;-3.264;2023-06-14T06:16:38;9;9;
78063;PMS5003;67429;51.596;-3.264;2023-06-14T06:19:03;9;9;
78063;PMS5003;67429;51.596;-3.264;2023-06-14T06:21:29;9;9;
78063;PMS5003;67429;51.596;-3.264;2023-06-14T06:23:56;9;9;
78063;PMS5003;67429;51.596;-3.264;2023-06-14T06:26:21;10;10;
78063;PMS5003;67429;51.596;-3.264;2023-06-14T06:28:45;11;11;
78063;PMS5003;67429;51.596;-3.264;2023-06-14T06:31:11;13;13;
78063;PMS5003;67429;51.596;-3.264;2023-06-14T06:33:36;9;9;
78063;PMS5003;67429;51.596;-3.264;2023-06-14T06:36:02;11;11;
78063;PMS5003;67429;51.596;-3.264;2023-06-14T06:38:27;10;10;
78063;PMS5003;67429;51.596;-3.264;2023-06-14T06:40:53;12;11;
78063;PMS5003;67429;51.596;-3.264;2023-06-14T06:43:18;10;10;
78063;PMS5003;67429;51.596;-3.264;2023-06-14T06:45:44;8;8;
78063;PMS5003;67429;51.596;-3.264;2023-06-14T06:48:10;9;9;
78063;PMS5003;67429;51.596;-3.264;2023-06-14T06:50:37;11;10;
78063;PMS5003;67429;51.596;-3.264;2023-06-14T06:53:01;10;10;
78063;PMS5003;67429;51.596;-3.264;2023-06-14T06:55:26;10;10;
78063;PMS5003;67429;51.596;-3.264;2023-06-14T06:57:52;9;9;
78063;PMS5003;67429;51.596;-3.264;2023-06-14T07:00:17;9;9;
78063;PMS5003;67429;51.596;-3.264;2023-06-14T07:02:48;8;8;
78063;PMS5003;67429;51.596;-3.264;2023-06-14T07:05:08;10;8;
78063;PMS5003;67429;51.596;-3.264;2023-06-14T07:07:34;9;8;
78063;PMS5003;67429;51.596;-3.264;2023-06-14T07:09:59;8;8;
78063;PMS5003;67429;51.596;-3.264;2023-06-14T07:12:24;7;7;
78063;PMS5003;67429;51.596;-3.264;2023-06-14T07:14:50;7;7;
78063;PMS5003;67429;51.596;-3.264;2023-06-14T07:17:15;7;7;
78063;PMS5003;67429;51.596;-3.264;2023-06-14T07:19:41;7;7;
78063;PMS5003;67429;51.596;-3.264;2023-06-14T07:22:06;7;7;
78063;PMS5003;67429;51.596;-3.264;2023-06-14T07:24:32;8;8;
78063;PMS5003;67429;51.596;-3.264;2023-06-14T07:26:57;7;6;
78063;PMS5003;67429;51.596;-3.264;2023-06-14T07:29:22;7;7;
78063;PMS5003;67429;51.596;-3.264;2023-06-14T07:31:48;9;9;
78063;PMS5003;67429;51.596;-3.264;2023-06-14T07:34:14;8;7;
78063;PMS5003;67429;51.596;-3.264;2023-06-14T07:36:39;9;9;
78063;PMS5003;67429;51.596;-3.264;2023-06-14T07:39:04;7;7;
78063;PMS5003;67429;51.596;-3.264;2023-06-14T07:41:30;6;6;
78063;PMS5003;67429;51.596;-3.264;2023-06-14T07:43:55;8;7;
78063;PMS5003;67429;51.596;-3.264;2023-06-14T07:46:21;7;7;
78063;PMS5003;67429;51.596;-3.264;2023-06-14T07:48:46;7;7;
78063;PMS5003;67429;51.596;-3.264;2023-06-14T07:51:12;8;7;
78063;PMS5003;67429;51.596;-3.264;2023-06-14T07:53:37;8;8;
78063;PMS5003;67429;51.596;-3.264;2023-06-14T07:56:03;6;5;
78063;PMS5003;67429;51.596;-3.264;2023-06-14T07:58:28;6;6;
78063;PMS5003;67429;51.596;-3.264;2023-06-14T08:00:54;5;5;
78063;PMS5003;67429;51.596;-3.264;2023-06-14T08:03:19;6;6;
78063;PMS5003;67429;51.596;-3.264;2023-06-14T08:05:44;6;6;
78063;PMS5003;67429;51.596;-3.264;2023-06-14T08:08:10;8;7;
78063;PMS5003;67429;51.596;-3.264;2023-06-14T08:10:35;6;6;
78063;PMS5003;67429;51.596;-3.264;2023-06-14T08:13:01;7;7;
78063;PMS5003;67429;51.596;-3.264;2023-06-14T08:15:26;8;8;
78063;PMS5003;67429;51.596;-3.264;2023-06-14T08:17:51;7;7;
78063;PMS5003;67429;51.596;-3.264;2023-06-14T08:20:17;6;6;
78063;PMS5003;67429;51.596;-3.264;2023-06-14T08:22:48;7;6;
78063;PMS5003;67429;51.596;-3.264;2023-06-14T08:25:08;7;7;
78063;PMS5003;67429;51.596;-3.264;2023-06-14T08:27:33;7;7;
78063;PMS5003;67429;51.596;-3.264;2023-06-14T08:29:59;10;8;
78063;PMS5003;67429;51.596;-3.264;2023-06-14T08:32:24;6;5;
78063;PMS5003;67429;51.596;-3.264;2023-06-14T08:34:50;7;5;
78063;PMS5003;67429;51.596;-3.264;2023-06-14T08:37:15;4;4;
78063;PMS5003;67429;51.596;-3.264;2023-06-14T08:39:40;5;5;
78063;PMS5003;67429;51.596;-3.264;2023-06-14T08:42:06;6;6;
78063;PMS5003;67429;51.596;-3.264;2023-06-14T08:44:31;8;7;
78063;PMS5003;67429;51.596;-3.264;2023-06-14T08:46:57;6;6;
78063;PMS5003;67429;51.596;-3.264;2023-06-14T08:49:22;6;6;
78063;PMS5003;67429;51.596;-3.264;2023-06-14T08:51:48;5;5;
78063;PMS5003;67429;51.596;-3.264;2023-06-14T08:54:13;6;6;
78063;PMS5003;67429;51.596;-3.264;2023-06-14T08:56:38;6;6;
78063;PMS5003;67429;51.596;-3.264;2023-06-14T08:59:04;6;6;
78063;PMS5003;67429;51.596;-3.264;2023-06-14T09:01:32;6;6;
78063;PMS5003;67429;51.596;-3.264;2023-06-14T09:03:55;6;6;
78063;PMS5003;67429;51.596;-3.264;2023-06-14T09:06:20;6;6;
78063;PMS5003;67429;51.596;-3.264;2023-06-14T09:08:46;5;5;
78063;PMS5003;67429;51.596;-3.264;2023-06-14T09:11:11;5;5;
78063;PMS5003;67429;51.596;-3.264;2023-06-14T09:13:36;6;5;
78063;PMS5003;67429;51.596;-3.264;2023-06-14T09:16:02;6;6;
78063;PMS5003;67429;51.596;-3.264;2023-06-14T09:20:52;6;5;
78063;PMS5003;67429;51.596;-3.264;2023-06-14T09:23:20;4;4;
78063;PMS5003;67429;51.596;-3.264;2023-06-14T09:25:45;5;5;
78063;PMS5003;67429;51.596;-3.264;2023-06-14T09:28:09;6;6;
78063;PMS5003;67429;51.596;-3.264;2023-06-14T09:30:35;7;7;
78063;PMS5003;67429;51.596;-3.264;2023-06-14T09:32:59;7;7;
78063;PMS5003;67429;51.596;-3.264;2023-06-14T09:35:25;6;6;
78063;PMS5003;67429;51.596;-3.264;2023-06-14T09:37:50;5;5;
78063;PMS5003;67429;51.596;-3.264;2023-06-14T09:40:18;9;8;
78063;PMS5003;67429;51.596;-3.264;2023-06-14T09:42:42;6;6;
78063;PMS5003;67429;51.596;-3.264;2023-06-14T09:45:07;7;6;
78063;PMS5003;67429;51.596;-3.264;2023-06-14T09:47:32;8;8;
78063;PMS5003;67429;51.596;-3.264;2023-06-14T09:49:57;6;6;
78063;PMS5003;67429;51.596;-3.264;2023-06-14T09:52:23;6;6;
78063;PMS5003;67429;51.596;-3.264;2023-06-14T09:54:48;7;6;
78063;PMS5003;67429;51.596;-3.264;2023-06-14T09:57:14;8;7;
78063;PMS5003;67429;51.596;-3.264;2023-06-14T09:59:40;5;5;
78063;PMS5003;67429;51.596;-3.264;2023-06-14T10:02:06;7;7;
78063;PMS5003;67429;51.596;-3.264;2023-06-14T10:04:30;6;6;
78063;PMS5003;67429;51.596;-3.264;2023-06-14T10:06:55;7;7;
78063;PMS5003;67429;51.596;-3.264;2023-06-14T10:09:20;6;6;
78063;PMS5003;67429;51.596;-3.264;2023-06-14T10:11:46;5;5;
78063;PMS5003;67429;51.596;-3.264;2023-06-14T10:14:12;6;6;
78063;PMS5003;67429;51.596;-3.264;2023-06-14T10:16:37;9;8;
78063;PMS5003;67429;51.596;-3.264;2023-06-14T10:19:04;6;6;
78063;PMS5003;67429;51.596;-3.264;2023-06-14T10:21:28;8;8;
78063;PMS5003;67429;51.596;-3.264;2023-06-14T10:23:53;5;5;
78063;PMS5003;67429;51.596;-3.264;2023-06-14T10:26:20;6;6;
78063;PMS5003;67429;51.596;-3.264;2023-06-14T10:28:44;8;8;
78063;PMS5003;67429;51.596;-3.264;2023-06-14T10:31:10;6;6;
78063;PMS5003;67429;51.596;-3.264;2023-06-14T10:33:35;6;6;
78063;PMS5003;67429;51.596;-3.264;2023-06-14T10:36:09;7;7;
78063;PMS5003;67429;51.596;-3.264;2023-06-14T10:38:30;6;6;
78063;PMS5003;67429;51.596;-3.264;2023-06-14T10:40:52;7;7;
78063;PMS5003;67429;51.596;-3.264;2023-06-14T10:43:22;7;7;
78063;PMS5003;67429;51.596;-3.264;2023-06-14T10:48:07;6;6;
78063;PMS5003;67429;51.596;-3.264;2023-06-14T10:50:32;7;7;
78063;PMS5003;67429;51.596;-3.264;2023-06-14T10:52:58;5;5;
78063;PMS5003;67429;51.596;-3.264;2023-06-14T10:55:23;6;6;
78063;PMS5003;67429;51.596;-3.264;2023-06-14T10:57:49;5;5;
78063;PMS5003;67429;51.596;-3.264;2023-06-14T11:00:14;6;6;
78063;PMS5003;67429;51.596;-3.264;2023-06-14T11:05:05;4;4;
78063;PMS5003;67429;51.596;-3.264;2023-06-14T11:07:34;7;7;
78063;PMS5003;67429;51.596;-3.264;2023-06-14T11:10:00;7;7;
78063;PMS5003;67429;51.596;-3.264;2023-06-14T11:12:21;6;5;
78063;PMS5003;67429;51.596;-3.264;2023-06-14T11:14:46;6;6;
78063;PMS5003;67429;51.596;-3.264;2023-06-14T11:17:12;6;6;
78063;PMS5003;67429;51.596;-3.264;2023-06-14T11:19:37;7;6;
78063;PMS5003;67429;51.596;-3.264;2023-06-14T11:22:02;5;5;
78063;PMS5003;67429;51.596;-3.264;2023-06-14T11:24:28;6;5;
78063;PMS5003;67429;51.596;-3.264;2023-06-14T11:26:53;6;5;
78063;PMS5003;67429;51.596;-3.264;2023-06-14T11:29:19;4;4;
78063;PMS5003;67429;51.596;-3.264;2023-06-14T11:31:44;3;3;
78063;PMS5003;67429;51.596;-3.264;2023-06-14T11:34:09;4;4;
78063;PMS5003;67429;51.596;-3.264;2023-06-14T11:36:34;5;5;
78063;PMS5003;67429;51.596;-3.264;2023-06-14T11:39:00;5;4;
78063;PMS5003;67429;51.596;-3.264;2023-06-14T11:41:25;6;5;
78063;PMS5003;67429;51.596;-3.264;2023-06-14T11:43:52;5;5;
78063;PMS5003;67429;51.596;-3.264;2023-06-14T11:46:16;6;5;
78063;PMS5003;67429;51.596;-3.264;2023-06-14T11:48:42;6;6;
78063;PMS5003;67429;51.596;-3.264;2023-06-14T11:51:07;4;4;
78063;PMS5003;67429;51.596;-3.264;2023-06-14T11:53:32;5;5;
78063;PMS5003;67429;51.596;-3.264;2023-06-14T11:55:57;6;5;
78063;PMS5003;67429;51.596;-3.264;2023-06-14T11:58:22;5;5;
78063;PMS5003;67429;51.596;-3.264;2023-06-14T12:00:48;5;5;
78063;PMS5003;67429;51.596;-3.264;2023-06-14T12:03:13;4;4;
78063;PMS5003;67429;51.596;-3.264;2023-06-14T12:05:38;7;7;
78063;PMS5003;67429;51.596;-3.264;2023-06-14T12:08:04;5;5;
78063;PMS5003;67429;51.596;-3.264;2023-06-14T12:10:29;6;6;
78063;PMS5003;67429;51.596;-3.264;2023-06-14T12:12:56;5;5;
78063;PMS5003;67429;51.596;-3.264;2023-06-14T12:15:21;6;5;
78063;PMS5003;67429;51.596;-3.264;2023-06-14T12:17:46;4;4;
78063;PMS5003;67429;51.596;-3.264;2023-06-14T12:20:12;4;4;
78063;PMS5003;67429;51.596;-3.264;2023-06-14T12:22:36;4;4;
78063;PMS5003;67429;51.596;-3.264;2023-06-14T12:25:02;5;5;
78063;PMS5003;67429;51.596;-3.264;2023-06-14T12:27:27;8;7;
78063;PMS5003;67429;51.596;-3.264;2023-06-14T12:32:17;10;10;
78063;PMS5003;67429;51.596;-3.264;2023-06-14T12:34:43;5;5;
78063;PMS5003;67429;51.596;-3.264;2023-06-14T12:37:08;5;5;
78063;PMS5003;67429;51.596;-3.264;2023-06-14T12:39:33;7;7;
78063;PMS5003;67429;51.596;-3.264;2023-06-14T12:41:59;6;6;
78063;PMS5003;67429;51.596;-3.264;2023-06-14T12:44:24;10;9;
78063;PMS5003;67429;51.596;-3.264;2023-06-14T12:46:49;6;6;
78063;PMS5003;67429;51.596;-3.264;2023-06-14T12:49:15;5;4;
78063;PMS5003;67429;51.596;-3.264;2023-06-14T12:51:41;6;6;
78063;PMS5003;67429;51.596;-3.264;2023-06-14T12:54:06;7;7;
78063;PMS5003;67429;51.596;-3.264;2023-06-14T12:56:31;5;5;
78063;PMS5003;67429;51.596;-3.264;2023-06-14T12:58:58;8;7;
78063;PMS5003;67429;51.596;-3.264;2023-06-14T13:01:22;6;6;
78063;PMS5003;67429;51.596;-3.264;2023-06-14T13:03:47;4;4;
78063;PMS5003;67429;51.596;-3.264;2023-06-14T13:06:12;7;7;
78063;PMS5003;67429;51.596;-3.264;2023-06-14T13:08:37;5;5;
78063;PMS5003;67429;51.596;-3.264;2023-06-14T13:11:03;7;6;
78063;PMS5003;67429;51.596;-3.264;2023-06-14T13:13:28;9;9;
78063;PMS5003;67429;51.596;-3.264;2023-06-14T13:15:53;9;9;
78063;PMS5003;67429;51.596;-3.264;2023-06-14T13:18:19;7;6;
78063;PMS5003;67429;51.596;-3.264;2023-06-14T13:20:45;6;6;
78063;PMS5003;67429;51.596;-3.264;2023-06-14T13:23:09;9;9;
78063;PMS5003;67429;51.596;-3.264;2023-06-14T13:25:35;8;8;
78063;PMS5003;67429;51.596;-3.264;2023-06-14T13:28:00;9;9;
78063;PMS5003;67429;51.596;-3.264;2023-06-14T13:30:25;8;8;
78063;PMS5003;67429;51.596;-3.264;2023-06-14T13:32:51;8;8;
78063;PMS5003;67429;51.596;-3.264;2023-06-14T13:35:16;9;9;
78063;PMS5003;67429;51.596;-3.264;2023-06-14T13:37:41;8;7;
78063;PMS5003;67429;51.596;-3.264;2023-06-14T13:40:07;10;10;
78063;PMS5003;67429;51.596;-3.264;2023-06-14T13:42:32;8;7;
78063;PMS5003;67429;51.596;-3.264;2023-06-14T13:44:58;10;10;
78063;PMS5003;67429;51.596;-3.264;2023-06-14T13:47:23;12;12;
78063;PMS5003;67429;51.596;-3.264;2023-06-14T13:49:48;8;8;
78063;PMS5003;67429;51.596;-3.264;2023-06-14T13:52:13;11;11;
78063;PMS5003;67429;51.596;-3.264;2023-06-14T13:54:39;9;9;
78063;PMS5003;67429;51.596;-3.264;2023-06-14T13:57:04;12;12;
78063;PMS5003;67429;51.596;-3.264;2023-06-14T13:59:29;10;10;
78063;PMS5003;67429;51.596;-3.264;2023-06-14T14:01:55;11;11;
78063;PMS5003;67429;51.596;-3.264;2023-06-14T14:04:20;9;9;
78063;PMS5003;67429;51.596;-3.264;2023-06-14T14:06:45;11;11;
78063;PMS5003;67429;51.596;-3.264;2023-06-14T14:09:10;9;9;
78063;PMS5003;67429;51.596;-3.264;2023-06-14T14:11:36;13;12;
78063;PMS5003;67429;51.596;-3.264;2023-06-14T14:14:02;13;13;
78063;PMS5003;67429;51.596;-3.264;2023-06-14T14:16:27;12;12;
78063;PMS5003;67429;51.596;-3.264;2023-06-14T14:18:52;13;13;
78063;PMS5003;67429;51.596;-3.264;2023-06-14T14:21:18;13;12;
78063;PMS5003;67429;51.596;-3.264;2023-06-14T14:23:43;14;14;
78063;PMS5003;67429;51.596;-3.264;2023-06-14T14:26:09;14;14;
78063;PMS5003;67429;51.596;-3.264;2023-06-14T14:28:34;12;12;
78063;PMS5003;67429;51.596;-3.264;2023-06-14T14:31:00;12;12;
78063;PMS5003;67429;51.596;-3.264;2023-06-14T14:33:25;16;16;
78063;PMS5003;67429;51.596;-3.264;2023-06-14T14:35:50;15;15;
78063;PMS5003;67429;51.596;-3.264;2023-06-14T14:38:16;14;14;
78063;PMS5003;67429;51.596;-3.264;2023-06-14T14:40:41;14;14;
78063;PMS5003;67429;51.596;-3.264;2023-06-14T14:43:07;16;16;
78063;PMS5003;67429;51.596;-3.264;2023-06-14T14:45:32;16;16;
78063;PMS5003;67429;51.596;-3.264;2023-06-14T14:48:00;20;20;
78063;PMS5003;67429;51.596;-3.264;2023-06-14T14:50:24;17;17;
78063;PMS5003;67429;51.596;-3.264;2023-06-14T14:52:49;15;15;
78063;PMS5003;67429;51.596;-3.264;2023-06-14T14:55:14;15;15;
78063;PMS5003;67429;51.596;-3.264;2023-06-14T14:57:39;14;14;
78063;PMS5003;67429;51.596;-3.264;2023-06-14T15:00:05;17;16;
78063;PMS5003;67429;51.596;-3.264;2023-06-14T15:02:30;16;16;
78063;PMS5003;67429;51.596;-3.264;2023-06-14T15:04:57;14;14;
78063;PMS5003;67429;51.596;-3.264;2023-06-14T15:07:20;14;13;
78063;PMS5003;67429;51.596;-3.264;2023-06-14T15:09:46;15;15;
78063;PMS5003;67429;51.596;-3.264;2023-06-14T15:12:11;17;17;
78063;PMS5003;67429;51.596;-3.264;2023-06-14T15:14:36;16;16;
78063;PMS5003;67429;51.596;-3.264;2023-06-14T15:17:02;15;15;
78063;PMS5003;67429;51.596;-3.264;2023-06-14T15:19:27;16;16;
78063;PMS5003;67429;51.596;-3.264;2023-06-14T15:21:53;18;16;
78063;PMS5003;67429;51.596;-3.264;2023-06-14T15:24:18;14;13;
78063;PMS5003;67429;51.596;-3.264;2023-06-14T15:26:44;15;15;
78063;PMS5003;67429;51.596;-3.264;2023-06-14T15:29:09;15;15;
78063;PMS5003;67429;51.596;-3.264;2023-06-14T15:31:35;15;14;
78063;PMS5003;67429;51.596;-3.264;2023-06-14T15:34:00;14;14;
78063;PMS5003;67429;51.596;-3.264;2023-06-14T15:36:25;15;15;
78063;PMS5003;67429;51.596;-3.264;2023-06-14T15:38:51;16;16;
78063;PMS5003;67429;51.596;-3.264;2023-06-14T15:41:16;13;12;
78063;PMS5003;67429;51.596;-3.264;2023-06-14T15:43:41;16;16;
78063;PMS5003;67429;51.596;-3.264;2023-06-14T15:46:06;16;15;
78063;PMS5003;67429;51.596;-3.264;2023-06-14T15:48:31;12;12;
78063;PMS5003;67429;51.596;-3.264;2023-06-14T15:50:57;14;14;
78063;PMS5003;67429;51.596;-3.264;2023-06-14T15:53:22;14;13;
78063;PMS5003;67429;51.596;-3.264;2023-06-14T15:55:47;14;14;
78063;PMS5003;67429;51.596;-3.264;2023-06-14T15:58:13;12;12;
78063;PMS5003;67429;51.596;-3.264;2023-06-14T16:00:38;16;14;
78063;PMS5003;67429;51.596;-3.264;2023-06-14T16:03:04;16;16;
78063;PMS5003;67429;51.596;-3.264;2023-06-14T16:05:28;15;15;
78063;PMS5003;67429;51.596;-3.264;2023-06-14T16:07:54;15;15;
78063;PMS5003;67429;51.596;-3.264;2023-06-14T16:10:19;14;13;
78063;PMS5003;67429;51.596;-3.264;2023-06-14T16:12:44;15;15;
78063;PMS5003;67429;51.596;-3.264;2023-06-14T16:15:10;13;13;